createdAt,value
2023-02-22T00:00:43.052Z,0.30
2023-02-22T00:03:52.671Z,0.20
2023-02-22T00:07:02.079Z,0.20
2023-02-22T00:10:13.452Z,0.10
2023-02-22T00:13:22.857Z,0.20
2023-02-22T00:16:32.851Z,0.20
2023-02-22T00:19:41.168Z,0.10
2023-02-22T00:22:51.876Z,0.00
2023-02-22T00:26:01.784Z,-0.10
2023-02-22T00:29:10.133Z,-0.20
2023-02-22T00:32:20.084Z,-0.10
2023-02-22T00:35:30.314Z,-0.10
2023-02-22T00:38:39.904Z,-0.10
2023-02-22T00:41:49.820Z,-0.20
2023-02-22T00:44:58.302Z,-0.20
2023-02-22T00:48:08.921Z,-0.30
2023-02-22T00:51:17.750Z,-0.30
2023-02-22T00:54:26.286Z,-0.30
2023-02-22T00:57:35.683Z,-0.30
2023-02-22T01:00:45.630Z,-0.30
2023-02-22T01:03:56.951Z,-0.30
2023-02-22T01:07:05.632Z,-0.30
2023-02-22T01:10:14.912Z,-0.40
2023-02-22T01:13:23.300Z,-0.40
2023-02-22T01:16:31.725Z,-0.40
2023-02-22T01:19:42.581Z,-0.30
2023-02-22T01:22:53.302Z,-0.40
2023-02-22T01:26:01.655Z,-0.40
2023-02-22T01:29:15.233Z,-0.40
2023-02-22T01:32:23.601Z,-0.40
2023-02-22T01:35:34.831Z,-0.40
2023-02-22T01:38:45.051Z,-0.40
2023-02-22T01:41:54.677Z,-0.40
2023-02-22T01:45:41.939Z,-0.40
2023-02-22T01:48:54.760Z,-0.40
2023-02-22T01:52:11.009Z,-0.50
2023-02-22T01:55:20.181Z,-0.40
2023-02-22T01:58:30.587Z,-0.50
2023-02-22T02:01:42.982Z,-0.50
2023-02-22T02:04:51.495Z,-0.50
2023-02-22T02:08:13.332Z,-0.50
2023-02-22T02:11:27.214Z,-0.50
2023-02-22T02:14:42.347Z,-0.50
2023-02-22T02:17:52.494Z,-0.50
2023-02-22T02:21:37.565Z,-0.50
2023-02-22T02:25:30.944Z,-0.50
2023-02-22T02:29:05.819Z,-0.50
2023-02-22T02:32:24.871Z,-0.40
2023-02-22T02:35:51.444Z,-0.40
2023-02-22T02:39:06.873Z,-0.50
2023-02-22T02:42:22.227Z,-0.70
2023-02-22T02:45:36.349Z,-0.60
2023-02-22T02:48:54.731Z,-0.60
2023-02-22T02:52:05.698Z,-0.60
2023-02-22T02:55:15.480Z,-0.70
2023-02-22T02:58:25.096Z,-0.70
2023-02-22T03:01:51.233Z,-0.80
2023-02-22T03:05:17.204Z,-0.80
2023-02-22T03:08:32.717Z,-0.80
2023-02-22T03:11:51.314Z,-0.70
2023-02-22T03:15:13.973Z,-0.80
2023-02-22T03:18:30.136Z,-0.80
2023-02-22T03:21:49.272Z,-0.80
2023-02-22T03:25:07.212Z,-0.90
2023-02-22T03:28:19.810Z,-0.90
2023-02-22T03:31:32.458Z,-0.90
2023-02-22T03:34:45.939Z,-0.90
2023-02-22T03:38:01.531Z,-0.80
2023-02-22T03:41:12.683Z,-0.80
2023-02-22T03:44:26.992Z,-0.70
2023-02-22T03:47:40.473Z,-0.70
2023-02-22T03:50:51.143Z,-0.60
2023-02-22T03:54:01.164Z,-0.60
2023-02-22T03:57:21.745Z,-0.60
2023-02-22T04:00:35.979Z,-0.60
2023-02-22T04:03:45.004Z,-0.50
2023-02-22T04:06:53.803Z,-0.50
2023-02-22T04:10:04.200Z,-0.50
2023-02-22T04:13:14.709Z,-0.50
2023-02-22T04:16:26.809Z,-0.50
2023-02-22T04:19:36.163Z,-0.50
2023-02-22T04:22:44.478Z,-0.50
2023-02-22T04:25:55.527Z,-0.50
2023-02-22T04:29:04.874Z,-0.50
2023-02-22T04:32:19.207Z,-0.50
2023-02-22T04:35:27.626Z,-0.50
2023-02-22T04:38:36.200Z,-0.50
2023-02-22T04:41:47.599Z,-0.50
2023-02-22T04:44:56.172Z,-0.50
2023-02-22T04:48:04.787Z,-0.50
2023-02-22T04:51:13.230Z,-0.40
2023-02-22T04:54:31.427Z,-0.40
2023-02-22T04:57:41.176Z,-0.40
2023-02-22T05:00:49.644Z,-0.40
2023-02-22T05:03:57.993Z,-0.30
2023-02-22T05:07:06.425Z,-0.30
2023-02-22T05:10:15.505Z,-0.20
2023-02-22T05:13:25.241Z,-0.20
2023-02-22T05:16:33.800Z,-0.20
2023-02-22T05:19:42.234Z,-0.20
2023-02-22T05:22:51.975Z,-0.20
2023-02-22T05:26:04.149Z,-0.20
2023-02-22T05:29:14.722Z,-0.10
2023-02-22T05:32:23.088Z,-0.10
2023-02-22T05:35:31.458Z,-0.10
2023-02-22T05:38:43.483Z,-0.10
2023-02-22T05:41:51.962Z,-0.10
2023-02-22T05:45:01.815Z,-0.10
2023-02-22T05:48:10.264Z,-0.20
2023-02-22T05:51:19.673Z,-0.20
2023-02-22T05:54:28.115Z,-0.20
2023-02-22T05:57:36.609Z,-0.20
2023-02-22T06:00:46.397Z,-0.20
2023-02-22T06:03:54.721Z,-0.20
2023-02-22T06:07:03.095Z,-0.20
2023-02-22T06:10:11.422Z,-0.30
2023-02-22T06:13:19.765Z,-0.30
2023-02-22T06:16:29.627Z,-0.30
2023-02-22T06:19:38.065Z,-0.20
2023-02-22T06:22:48.488Z,-0.20
2023-02-22T06:25:56.884Z,-0.20
2023-02-22T06:29:06.031Z,-0.20
2023-02-22T06:32:16.241Z,-0.20
2023-02-22T06:35:24.990Z,-0.10
2023-02-22T06:38:33.606Z,-0.10
2023-02-22T06:41:42.472Z,0.00
2023-02-22T06:44:51.829Z,0.00
2023-02-22T06:48:01.914Z,0.00
2023-02-22T06:51:10.839Z,0.10
2023-02-22T06:54:19.218Z,0.20
2023-02-22T06:57:27.574Z,0.20
2023-02-22T07:00:36.048Z,0.30
2023-02-22T07:03:45.825Z,0.40
2023-02-22T07:06:54.251Z,0.60
2023-02-22T07:10:02.924Z,0.80
2023-02-22T07:13:11.259Z,0.80
2023-02-22T07:16:19.675Z,1.10
2023-02-22T07:19:29.403Z,1.60
2023-02-22T07:22:37.711Z,3.20
2023-02-22T07:25:46.279Z,4.30
2023-02-22T07:28:54.930Z,4.60
2023-02-22T07:32:03.383Z,4.90
2023-02-22T07:35:17.904Z,4.00
2023-02-22T07:38:26.336Z,3.80
2023-02-22T07:41:34.763Z,2.90
2023-02-22T07:44:43.089Z,3.60
2023-02-22T07:47:51.566Z,3.80
2023-02-22T07:51:01.626Z,3.50
2023-02-22T07:54:10.156Z,3.50
2023-02-22T07:57:18.535Z,3.50
2023-02-22T08:00:28.670Z,3.10
2023-02-22T08:03:38.201Z,3.30
2023-02-22T08:06:49.515Z,3.70
2023-02-22T08:09:57.900Z,3.60
2023-02-22T08:13:06.960Z,3.50
2023-02-22T08:16:15.309Z,3.10
2023-02-22T08:19:23.792Z,3.20
2023-02-22T08:22:33.519Z,3.90
2023-02-22T08:25:41.994Z,4.20
2023-02-22T08:28:50.427Z,3.60
2023-02-22T08:31:58.945Z,3.70
2023-02-22T08:35:08.401Z,3.50
2023-02-22T08:38:20.696Z,3.60
2023-02-22T08:41:30.426Z,3.70
2023-02-22T08:44:40.962Z,3.50
2023-02-22T08:47:49.632Z,3.30
2023-02-22T08:50:58.230Z,3.20
2023-02-22T08:54:10.779Z,3.10
2023-02-22T08:57:21.402Z,3.10
2023-02-22T09:00:33.215Z,2.60
2023-02-22T09:03:41.784Z,2.60
2023-02-22T09:06:51.891Z,2.80
2023-02-22T09:10:01.951Z,2.70
2023-02-22T09:13:10.340Z,2.60
2023-02-22T09:16:18.981Z,2.40
2023-02-22T09:19:27.330Z,2.40
2023-02-22T09:22:35.776Z,2.50
2023-02-22T09:25:45.516Z,2.50
2023-02-22T09:28:53.915Z,2.60
2023-02-22T09:32:03.939Z,2.60
2023-02-22T09:35:13.041Z,2.70
2023-02-22T09:38:24.829Z,2.80
2023-02-22T09:41:41.126Z,2.80
2023-02-22T09:44:53.865Z,2.70
2023-02-22T09:48:20.696Z,2.70
2023-02-22T09:51:36.730Z,2.70
2023-02-22T09:54:51.890Z,2.80
2023-02-22T09:58:04.998Z,2.70
2023-02-22T10:01:24.496Z,2.90
2023-02-22T10:04:42.516Z,3.00
2023-02-22T10:07:56.999Z,3.20
2023-02-22T10:11:18.557Z,3.20
2023-02-22T10:14:45.334Z,3.00
2023-02-22T10:18:03.541Z,3.20
2023-02-22T10:21:22.055Z,3.30
2023-02-22T10:24:45.615Z,3.30
2023-02-22T10:27:57.622Z,3.30
2023-02-22T10:31:10.200Z,3.40
2023-02-22T10:34:23.572Z,3.50
2023-02-22T10:37:33.944Z,3.40
2023-02-22T10:40:46.852Z,3.50
2023-02-22T10:43:55.663Z,3.60
2023-02-22T10:47:09.388Z,3.50
2023-02-22T10:50:20.958Z,3.60
2023-02-22T10:53:31.220Z,3.70
2023-02-22T10:56:49.042Z,3.90
2023-02-22T10:59:58.223Z,4.00
2023-02-22T11:03:19.460Z,4.00
2023-02-22T11:06:28.092Z,3.90
2023-02-22T11:09:50.232Z,4.00
2023-02-22T11:12:58.848Z,4.00
2023-02-22T11:16:20.449Z,4.10
2023-02-22T11:19:32.884Z,4.00
2023-02-22T11:22:45.199Z,4.10
2023-02-22T11:26:04.485Z,4.10
2023-02-22T11:29:23.290Z,4.20
2023-02-22T11:32:32.051Z,4.10
2023-02-22T11:35:52.737Z,4.10
2023-02-22T11:39:05.681Z,4.10
2023-02-22T11:42:23.880Z,4.20
2023-02-22T11:45:32.992Z,4.20
2023-02-22T11:48:46.032Z,4.30
2023-02-22T11:52:09.306Z,4.40
2023-02-22T11:55:41.290Z,4.30
2023-02-22T11:58:56.833Z,4.30
2023-02-22T12:02:24.901Z,4.40
2023-02-22T12:05:46.934Z,4.60
2023-02-22T12:09:08.688Z,4.60
2023-02-22T12:12:25.402Z,4.70
2023-02-22T12:15:41.128Z,4.60
2023-02-22T12:19:06.083Z,4.60
2023-02-22T12:22:22.510Z,4.50
2023-02-22T12:25:36.402Z,4.60
2023-02-22T12:28:48.745Z,4.60
2023-02-22T12:32:03.198Z,4.60
2023-02-22T12:35:17.564Z,4.60
2023-02-22T12:38:33.829Z,4.60
2023-02-22T12:41:48.011Z,4.60
2023-02-22T12:45:01.212Z,4.60
2023-02-22T12:48:25.017Z,4.60
2023-02-22T12:51:41.267Z,4.70
2023-02-22T12:54:57.368Z,4.80
2023-02-22T12:58:14.549Z,4.90
2023-02-22T13:01:26.705Z,4.70
2023-02-22T13:04:36.916Z,4.80
2023-02-22T13:07:52.640Z,4.70
2023-02-22T13:11:18.341Z,4.80
2023-02-22T13:14:48.154Z,4.80
2023-02-22T13:18:04.182Z,4.80
2023-02-22T13:21:20.139Z,4.70
2023-02-22T13:24:38.068Z,4.80
2023-02-22T13:27:52.562Z,4.60
2023-02-22T13:31:19.462Z,4.60
2023-02-22T13:34:54.661Z,4.70
2023-02-22T13:38:50.608Z,4.70
2023-02-22T13:42:35.511Z,4.60
2023-02-22T13:46:01.550Z,4.60
2023-02-22T13:49:40.706Z,4.60
2023-02-22T13:52:51.959Z,4.50
2023-02-22T13:56:02.557Z,4.50
2023-02-22T13:59:25.092Z,4.50
2023-02-22T14:02:54.775Z,4.50
2023-02-22T14:06:05.807Z,4.50
2023-02-22T14:09:19.982Z,4.50
2023-02-22T14:12:50.573Z,4.50
2023-02-22T14:16:24.316Z,4.50
2023-02-22T14:19:32.758Z,4.50
2023-02-22T14:22:43.508Z,4.50
2023-02-22T14:25:52.661Z,4.60
2023-02-22T14:29:03.611Z,4.50
2023-02-22T14:32:15.100Z,4.50
2023-02-22T14:35:28.793Z,4.50
2023-02-22T14:38:43.541Z,4.50
2023-02-22T14:42:01.524Z,4.50
2023-02-22T14:45:28.427Z,4.60
2023-02-22T14:48:42.795Z,4.50
2023-02-22T14:51:56.767Z,4.50
2023-02-22T14:55:21.321Z,4.40
2023-02-22T14:58:35.492Z,4.40
2023-02-22T15:01:58.382Z,4.40
2023-02-22T15:05:15.156Z,4.40
2023-02-22T15:08:28.402Z,4.40
2023-02-22T15:11:38.258Z,4.40
2023-02-22T15:14:48.597Z,4.40
2023-02-22T15:17:57.856Z,4.30
2023-02-22T15:21:09.531Z,4.40
2023-02-22T15:24:25.193Z,4.40
2023-02-22T15:27:37.465Z,4.30
2023-02-22T15:30:46.170Z,4.30
2023-02-22T15:33:55.568Z,4.50
2023-02-22T15:37:25.145Z,4.40
2023-02-22T15:40:35.445Z,4.30
2023-02-22T15:43:45.190Z,4.40
2023-02-22T15:46:56.444Z,4.40
2023-02-22T15:50:25.599Z,4.40
2023-02-22T15:53:43.150Z,4.30
2023-02-22T15:56:56.797Z,4.30
2023-02-22T16:00:10.808Z,4.20
2023-02-22T16:03:27.401Z,4.20
2023-02-22T16:06:40.555Z,4.30
2023-02-22T16:09:51.194Z,4.30
2023-02-22T16:13:16.634Z,4.20
2023-02-22T16:16:36.861Z,4.20
2023-02-22T16:19:45.504Z,4.20
2023-02-22T16:22:58.525Z,4.20
2023-02-22T16:26:26.592Z,4.20
2023-02-22T16:29:35.475Z,4.10
2023-02-22T16:32:45.633Z,4.10
2023-02-22T16:35:54.060Z,4.00
2023-02-22T16:39:02.437Z,4.00
2023-02-22T16:42:11.654Z,4.10
2023-02-22T16:45:23.109Z,4.10
2023-02-22T16:48:38.122Z,4.10
2023-02-22T16:51:50.091Z,4.00
2023-02-22T16:54:59.852Z,4.00
2023-02-22T16:58:15.841Z,4.00
2023-02-22T17:01:24.982Z,4.00
2023-02-22T17:04:35.856Z,4.00
2023-02-22T17:07:44.331Z,4.00
2023-02-22T17:10:56.834Z,4.00
2023-02-22T17:14:05.654Z,4.00
2023-02-22T17:17:19.261Z,4.00
2023-02-22T17:20:31.457Z,4.00
2023-02-22T17:23:41.542Z,4.00
2023-02-22T17:26:50.058Z,4.00
2023-02-22T17:29:58.752Z,4.00
2023-02-22T17:33:10.103Z,4.00
2023-02-22T17:36:24.339Z,4.00
2023-02-22T17:39:34.025Z,4.00
2023-02-22T17:42:43.048Z,4.00
2023-02-22T17:45:51.613Z,4.00
2023-02-22T17:49:00.135Z,4.00
2023-02-22T17:52:16.357Z,4.00
2023-02-22T17:55:25.380Z,4.00
2023-02-22T17:58:33.704Z,4.00
2023-02-22T18:01:44.119Z,3.90
2023-02-22T18:04:54.288Z,3.90
2023-02-22T18:08:04.316Z,3.90
2023-02-22T18:11:12.725Z,3.90
2023-02-22T18:14:21.151Z,3.90
2023-02-22T18:17:29.501Z,3.90
2023-02-22T18:20:39.243Z,3.90
2023-02-22T18:23:49.317Z,3.90
2023-02-22T18:26:57.910Z,3.90
2023-02-22T18:30:06.962Z,3.90
2023-02-22T18:33:16.094Z,3.80
2023-02-22T18:36:25.376Z,3.80
2023-02-22T18:39:42.762Z,3.80
2023-02-22T18:42:51.400Z,3.80
2023-02-22T18:46:07.853Z,3.80
2023-02-22T18:49:17.292Z,3.80
2023-02-22T18:52:25.682Z,3.80
2023-02-22T18:55:37.666Z,3.80
2023-02-22T18:58:46.017Z,3.80
2023-02-22T19:01:54.528Z,3.70
2023-02-22T19:05:04.079Z,3.70
2023-02-22T19:08:13.026Z,3.80
2023-02-22T19:11:27.394Z,3.80
2023-02-22T19:14:38.294Z,3.70
2023-02-22T19:17:46.878Z,3.70
2023-02-22T19:20:59.429Z,3.80
2023-02-22T19:24:08.539Z,3.70
2023-02-22T19:27:18.543Z,3.70
2023-02-22T19:30:27.781Z,3.70
2023-02-22T19:33:36.264Z,3.70
2023-02-22T19:36:46.937Z,3.70
2023-02-22T19:39:55.332Z,3.70
2023-02-22T19:43:05.113Z,3.70
2023-02-22T19:46:14.159Z,3.60
2023-02-22T19:49:22.742Z,3.60
2023-02-22T19:52:31.120Z,3.60
2023-02-22T19:55:39.666Z,3.60
2023-02-22T19:58:51.447Z,3.50
2023-02-22T20:02:00.145Z,3.60
2023-02-22T20:05:10.294Z,3.60
2023-02-22T20:08:20.708Z,3.60
2023-02-22T20:11:29.831Z,3.60
2023-02-22T20:14:39.753Z,3.60
2023-02-22T20:17:50.492Z,3.50
2023-02-22T20:20:59.067Z,3.50
2023-02-22T20:24:12.098Z,3.50
2023-02-22T20:27:20.449Z,3.50
2023-02-22T20:30:32.520Z,3.50
2023-02-22T20:33:41.742Z,3.60
2023-02-22T20:36:50.294Z,3.50
2023-02-22T20:39:59.894Z,3.50
2023-02-22T20:43:08.405Z,3.50
2023-02-22T20:46:18.636Z,3.50
2023-02-22T20:49:27.334Z,3.40
2023-02-22T20:52:36.346Z,3.40
2023-02-22T20:55:50.163Z,3.40
2023-02-22T20:59:00.325Z,3.40
2023-02-22T21:02:11.851Z,3.40
2023-02-22T21:05:20.433Z,3.40
2023-02-22T21:08:29.022Z,3.50
2023-02-22T21:11:38.992Z,3.40
2023-02-22T21:14:47.402Z,3.40
2023-02-22T21:17:57.345Z,3.40
2023-02-22T21:21:10.186Z,3.40
2023-02-22T21:24:18.559Z,3.40
2023-02-22T21:27:27.753Z,3.40
2023-02-22T21:30:36.274Z,3.40
2023-02-22T21:33:49.503Z,3.40
2023-02-22T21:36:58.111Z,3.30
2023-02-22T21:40:11.968Z,3.40
2023-02-22T21:43:20.289Z,3.30
2023-02-22T21:46:30.062Z,3.30
2023-02-22T21:49:39.859Z,3.30
2023-02-22T21:52:49.964Z,3.30
2023-02-22T21:56:03.611Z,3.40
2023-02-22T21:59:14.745Z,3.40
2023-02-22T22:02:23.736Z,3.30
2023-02-22T22:05:33.733Z,3.30
2023-02-22T22:08:46.152Z,3.30
2023-02-22T22:11:58.467Z,3.30
2023-02-22T22:15:07.666Z,3.30
2023-02-22T22:18:16.454Z,3.30
2023-02-22T22:21:27.019Z,3.30
2023-02-22T22:24:35.565Z,3.30
2023-02-22T22:27:44.080Z,3.30
2023-02-22T22:30:52.520Z,3.30
2023-02-22T22:34:00.924Z,3.30
2023-02-22T22:37:10.908Z,3.30
2023-02-22T22:40:19.919Z,3.20
2023-02-22T22:43:30.199Z,3.20
2023-02-22T22:46:41.027Z,3.30
2023-02-22T22:49:50.337Z,3.30
2023-02-22T22:53:00.344Z,3.30
2023-02-22T22:56:14.285Z,3.20
2023-02-22T22:59:22.669Z,3.20
2023-02-22T23:02:31.007Z,3.20
2023-02-22T23:05:42.577Z,3.30
2023-02-22T23:09:00.044Z,3.30
2023-02-22T23:12:16.848Z,3.20
2023-02-22T23:15:26.416Z,3.30
2023-02-22T23:18:36.327Z,3.20
2023-02-22T23:21:44.743Z,3.20
2023-02-22T23:24:54.592Z,3.20
2023-02-22T23:28:02.998Z,3.10
2023-02-22T23:31:13.981Z,3.20
2023-02-22T23:34:24.254Z,3.10
2023-02-22T23:37:35.517Z,3.20
2023-02-22T23:40:46.106Z,3.20
2023-02-22T23:43:54.521Z,3.20
2023-02-22T23:47:03.894Z,3.20
2023-02-22T23:50:13.675Z,3.20
2023-02-22T23:53:21.977Z,3.20
2023-02-22T23:56:31.758Z,3.20
2023-02-22T23:59:40.885Z,3.20
